createdAt,value
2023-04-19T00:01:29.665Z,10.72
2023-04-19T00:04:00.313Z,10.69
2023-04-19T00:06:30.620Z,10.67
2023-04-19T00:09:00.028Z,10.59
2023-04-19T00:11:29.106Z,10.56
2023-04-19T00:13:58.102Z,10.58
2023-04-19T00:16:27.303Z,10.60
2023-04-19T00:18:56.805Z,10.56
2023-04-19T00:21:27.574Z,10.63
2023-04-19T00:23:56.729Z,10.70
2023-04-19T00:26:26.201Z,10.71
2023-04-19T00:28:55.467Z,10.69
2023-04-19T00:31:24.808Z,10.65
2023-04-19T00:33:54.041Z,10.64
2023-04-19T00:36:23.197Z,10.58
2023-04-19T00:38:53.748Z,10.61
2023-04-19T00:41:22.967Z,10.62
2023-04-19T00:43:52.095Z,10.67
2023-04-19T00:46:21.943Z,10.61
2023-04-19T00:48:52.057Z,10.47
2023-04-19T00:51:21.844Z,10.44
2023-04-19T00:53:53.156Z,10.43
2023-04-19T00:56:24.359Z,10.36
2023-04-19T00:58:56.688Z,10.32
2023-04-19T01:01:25.986Z,10.22
2023-04-19T01:03:55.686Z,10.07
2023-04-19T01:06:25.014Z,10.22
2023-04-19T01:08:55.700Z,10.12
2023-04-19T01:11:25.169Z,10.11
2023-04-19T01:13:54.577Z,10.14
2023-04-19T01:16:23.785Z,10.13
2023-04-19T01:18:53.252Z,10.05
2023-04-19T01:21:23.462Z,10.07
2023-04-19T01:23:54.150Z,10.11
2023-04-19T01:26:24.898Z,10.16
2023-04-19T01:28:53.906Z,10.06
2023-04-19T01:31:23.043Z,10.11
2023-04-19T01:33:52.121Z,10.16
2023-04-19T01:36:21.272Z,10.11
2023-04-19T01:38:51.417Z,10.07
2023-04-19T01:41:23.085Z,10.20
2023-04-19T01:43:52.247Z,10.15
2023-04-19T01:46:21.479Z,10.09
2023-04-19T01:48:50.625Z,10.09
2023-04-19T01:51:22.008Z,10.02
2023-04-19T01:53:53.928Z,9.99
2023-04-19T01:56:26.868Z,10.02
2023-04-19T01:58:56.313Z,9.91
2023-04-19T02:01:25.663Z,10.02
2023-04-19T02:03:54.865Z,10.03
2023-04-19T02:06:24.992Z,9.84
2023-04-19T02:08:54.222Z,9.96
2023-04-19T02:11:23.447Z,10.02
2023-04-19T02:13:54.086Z,9.81
2023-04-19T02:16:23.365Z,9.81
2023-04-19T02:18:53.585Z,9.84
2023-04-19T02:21:23.097Z,9.83
2023-04-19T02:23:52.397Z,9.73
2023-04-19T02:26:21.986Z,9.76
2023-04-19T02:28:54.129Z,9.72
2023-04-19T02:31:23.635Z,9.76
2023-04-19T02:33:52.867Z,9.77
2023-04-19T02:36:22.044Z,9.80
2023-04-19T02:38:51.308Z,9.66
2023-04-19T02:41:22.467Z,9.76
2023-04-19T02:43:51.775Z,9.67
2023-04-19T02:46:22.655Z,9.65
2023-04-19T02:48:51.952Z,9.67
2023-04-19T02:51:21.405Z,9.64
2023-04-19T02:53:50.543Z,9.61
2023-04-19T02:56:19.752Z,9.54
2023-04-19T02:58:49.912Z,9.62
2023-04-19T03:01:19.017Z,9.55
2023-04-19T03:03:49.828Z,9.62
2023-04-19T03:06:19.225Z,9.55
2023-04-19T03:08:48.392Z,9.56
2023-04-19T03:11:19.847Z,9.64
2023-04-19T03:13:49.431Z,9.60
2023-04-19T03:16:18.578Z,9.61
2023-04-19T03:18:49.566Z,9.72
2023-04-19T03:21:22.850Z,9.69
2023-04-19T03:23:55.603Z,9.70
2023-04-19T03:26:26.688Z,9.60
2023-04-19T03:28:58.530Z,9.48
2023-04-19T03:31:48.045Z,9.58
2023-04-19T03:34:19.138Z,9.48
2023-04-19T03:36:50.694Z,9.46
2023-04-19T03:39:21.214Z,9.46
2023-04-19T03:41:53.566Z,9.42
2023-04-19T03:44:38.456Z,9.42
2023-04-19T03:47:09.380Z,9.46
2023-04-19T03:49:45.998Z,9.47
2023-04-19T03:52:15.570Z,9.52
2023-04-19T03:54:44.727Z,9.51
2023-04-19T03:57:26.824Z,9.43
2023-04-19T03:59:57.194Z,9.69
2023-04-19T04:02:26.675Z,9.55
2023-04-19T04:04:57.682Z,9.65
2023-04-19T04:07:27.013Z,9.67
2023-04-19T04:09:56.645Z,9.74
2023-04-19T04:12:26.109Z,9.68
2023-04-19T04:14:58.469Z,9.67
2023-04-19T04:17:27.842Z,9.69
2023-04-19T04:19:58.978Z,9.57
2023-04-19T04:22:33.117Z,9.72
2023-04-19T04:25:02.610Z,9.76
2023-04-19T04:27:39.578Z,9.86
2023-04-19T04:30:15.470Z,9.89
2023-04-19T04:32:45.218Z,9.80
2023-04-19T04:35:15.868Z,9.79
2023-04-19T04:37:54.091Z,9.83
2023-04-19T04:40:23.593Z,9.68
2023-04-19T04:42:54.443Z,9.75
2023-04-19T04:45:26.168Z,9.76
2023-04-19T04:47:55.507Z,9.61
2023-04-19T04:50:26.097Z,9.69
2023-04-19T04:52:55.885Z,9.72
2023-04-19T04:55:30.457Z,9.71
2023-04-19T04:57:59.873Z,9.68
2023-04-19T05:00:46.260Z,9.65
2023-04-19T05:03:15.549Z,9.65
2023-04-19T05:05:52.008Z,9.92
2023-04-19T05:08:21.262Z,9.83
2023-04-19T05:10:50.973Z,9.72
2023-04-19T05:13:22.537Z,9.74
2023-04-19T05:15:53.206Z,9.80
2023-04-19T05:18:22.677Z,9.88
2023-04-19T05:20:53.353Z,9.89
2023-04-19T05:23:27.051Z,9.98
2023-04-19T05:25:56.863Z,9.97
2023-04-19T05:28:28.796Z,9.82
2023-04-19T05:31:07.704Z,9.89
2023-04-19T05:33:43.422Z,9.86
2023-04-19T05:36:14.057Z,9.92
2023-04-19T05:38:43.173Z,10.07
2023-04-19T05:41:12.879Z,10.06
2023-04-19T05:43:41.976Z,9.93
2023-04-19T05:46:11.628Z,10.12
2023-04-19T05:48:41.009Z,10.09
2023-04-19T05:51:34.480Z,9.92
2023-04-19T05:54:12.789Z,9.95
2023-04-19T05:56:43.514Z,10.06
2023-04-19T05:59:14.287Z,10.12
2023-04-19T06:01:43.575Z,10.24
2023-04-19T06:04:13.043Z,10.19
2023-04-19T06:06:44.609Z,10.42
2023-04-19T06:09:18.406Z,10.47
2023-04-19T06:11:51.381Z,10.55
2023-04-19T06:14:21.001Z,10.56
2023-04-19T06:16:50.274Z,10.50
2023-04-19T06:19:19.726Z,10.61
2023-04-19T06:21:50.438Z,10.53
2023-04-19T06:24:19.765Z,10.61
2023-04-19T06:26:49.931Z,10.70
2023-04-19T06:29:20.738Z,10.64
2023-04-19T06:31:50.321Z,10.57
2023-04-19T06:34:19.861Z,10.65
2023-04-19T06:36:50.570Z,10.83
2023-04-19T06:39:19.653Z,10.81
2023-04-19T06:41:48.945Z,10.87
2023-04-19T06:44:19.960Z,10.74
2023-04-19T06:46:49.096Z,10.72
2023-04-19T06:49:18.230Z,10.60
2023-04-19T06:51:47.478Z,10.59
2023-04-19T06:54:18.427Z,10.69
2023-04-19T06:56:49.167Z,10.77
2023-04-19T06:59:20.218Z,10.84
2023-04-19T07:01:49.857Z,10.88
2023-04-19T07:04:19.594Z,10.96
2023-04-19T07:06:51.261Z,11.06
2023-04-19T07:09:21.808Z,11.22
2023-04-19T07:11:51.671Z,11.09
2023-04-19T07:14:20.859Z,11.15
2023-04-19T07:16:50.958Z,11.16
2023-04-19T07:19:23.053Z,11.12
2023-04-19T07:21:52.853Z,11.29
2023-04-19T07:24:23.470Z,11.33
2023-04-19T07:26:52.632Z,11.50
2023-04-19T07:29:21.752Z,11.36
2023-04-19T07:31:50.874Z,11.45
2023-04-19T07:34:20.158Z,11.54
2023-04-19T07:36:49.160Z,11.39
2023-04-19T07:39:18.274Z,11.39
2023-04-19T07:41:48.757Z,11.42
2023-04-19T07:44:18.384Z,11.42
2023-04-19T07:46:47.776Z,11.56
2023-04-19T07:49:17.956Z,11.66
2023-04-19T07:51:46.950Z,11.77
2023-04-19T07:54:17.049Z,11.79
2023-04-19T07:56:47.816Z,11.72
2023-04-19T07:59:17.050Z,11.68
2023-04-19T08:01:46.460Z,11.83
2023-04-19T08:04:18.268Z,12.16
2023-04-19T08:06:47.777Z,12.17
2023-04-19T08:09:16.917Z,12.19
2023-04-19T08:11:47.469Z,12.22
2023-04-19T08:14:32.537Z,11.93
2023-04-19T08:19:37.492Z,12.21
2023-04-19T08:22:07.170Z,12.49
2023-04-19T08:24:36.443Z,12.65
2023-04-19T08:27:07.207Z,12.96
2023-04-19T08:29:36.483Z,13.19
2023-04-19T08:32:06.016Z,13.39
2023-04-19T08:34:37.532Z,13.63
2023-04-19T08:37:07.584Z,14.05
2023-04-19T08:39:37.403Z,13.99
2023-04-19T08:42:18.315Z,14.08
2023-04-19T08:45:23.178Z,13.89
2023-04-19T08:47:59.778Z,13.91
2023-04-19T08:50:36.207Z,14.03
2023-04-19T08:53:24.580Z,13.69
2023-04-19T08:56:12.722Z,13.69
2023-04-19T09:01:33.881Z,13.82
2023-04-19T09:04:26.228Z,13.90
2023-04-19T09:06:55.436Z,13.99
2023-04-19T09:11:59.528Z,14.33
2023-04-19T09:14:30.946Z,14.83
2023-04-19T09:17:17.606Z,15.23
2023-04-19T09:19:50.978Z,15.52
2023-04-19T09:22:20.472Z,15.53
2023-04-19T09:27:29.452Z,15.72
2023-04-19T09:30:01.337Z,15.32
2023-04-19T09:32:49.243Z,15.67
2023-04-19T09:35:18.487Z,15.40
2023-04-19T09:38:06.128Z,14.98
2023-04-19T09:40:36.435Z,15.19
2023-04-19T09:45:45.967Z,14.98
2023-04-19T09:48:15.520Z,14.86
2023-04-19T09:51:00.945Z,14.61
2023-04-19T09:53:35.701Z,15.02
2023-04-19T09:56:06.486Z,15.27
2023-04-19T09:58:49.051Z,15.34
2023-04-19T10:01:27.011Z,15.60
2023-04-19T10:03:59.212Z,15.55
2023-04-19T10:06:58.236Z,15.67
2023-04-19T10:09:27.202Z,15.68
2023-04-19T10:12:04.679Z,16.25
2023-04-19T10:14:46.604Z,16.17
2023-04-19T10:17:17.981Z,16.17
2023-04-19T10:19:48.759Z,16.04
2023-04-19T10:22:18.190Z,16.15
2023-04-19T10:25:19.957Z,16.35
2023-04-19T10:27:51.659Z,16.82
2023-04-19T10:30:22.022Z,17.16
2023-04-19T10:32:56.661Z,17.10
2023-04-19T10:35:27.551Z,16.51
2023-04-19T10:38:13.564Z,16.86
2023-04-19T10:41:01.028Z,16.90
2023-04-19T10:43:31.450Z,17.43
2023-04-19T10:46:08.359Z,17.50
2023-04-19T10:48:53.838Z,17.71
2023-04-19T10:51:29.390Z,17.60
2023-04-19T10:54:00.305Z,17.37
2023-04-19T10:57:12.612Z,17.66
2023-04-19T10:59:44.464Z,17.86
2023-04-19T11:02:31.139Z,18.38
2023-04-19T11:05:04.537Z,18.09
2023-04-19T11:07:42.293Z,18.36
2023-04-19T11:10:13.082Z,18.97
2023-04-19T11:12:46.421Z,18.79
2023-04-19T11:15:15.564Z,18.76
2023-04-19T11:17:44.889Z,18.98
2023-04-19T11:20:16.013Z,18.60
2023-04-19T11:22:47.739Z,18.56
2023-04-19T11:25:19.322Z,18.79
2023-04-19T11:27:52.506Z,18.86
2023-04-19T11:30:30.908Z,19.13
2023-04-19T11:33:00.238Z,18.85
2023-04-19T11:35:31.666Z,18.91
2023-04-19T11:38:01.902Z,19.18
2023-04-19T11:40:31.504Z,19.23
2023-04-19T11:43:02.547Z,18.99
2023-04-19T11:45:36.494Z,18.84
2023-04-19T11:48:09.180Z,18.43
2023-04-19T11:50:41.905Z,18.00
2023-04-19T11:53:16.897Z,17.57
2023-04-19T11:55:47.804Z,17.20
2023-04-19T11:58:32.447Z,17.09
2023-04-19T12:01:07.064Z,16.83
2023-04-19T12:03:37.398Z,16.51
2023-04-19T12:06:10.809Z,16.46
2023-04-19T12:08:40.956Z,16.46
2023-04-19T12:11:11.382Z,16.53
2023-04-19T12:13:41.129Z,16.50
2023-04-19T12:16:10.614Z,16.41
2023-04-19T12:18:49.279Z,16.40
2023-04-19T12:21:32.309Z,17.47
2023-04-19T12:24:03.930Z,18.54
2023-04-19T12:26:32.941Z,19.02
2023-04-19T12:29:04.262Z,19.31
2023-04-19T12:31:33.897Z,19.92
2023-04-19T12:34:03.085Z,19.04
2023-04-19T12:36:33.726Z,18.68
2023-04-19T12:39:02.947Z,18.64
2023-04-19T12:41:32.127Z,19.57
2023-04-19T12:44:01.365Z,20.41
2023-04-19T12:46:30.449Z,20.80
2023-04-19T12:48:59.753Z,21.54
2023-04-19T12:51:29.372Z,21.48
2023-04-19T12:54:00.154Z,21.78
2023-04-19T12:56:29.320Z,22.08
2023-04-19T12:58:58.590Z,22.32
2023-04-19T13:01:27.799Z,21.96
2023-04-19T13:03:59.275Z,22.65
2023-04-19T13:06:29.276Z,22.36
2023-04-19T13:11:31.425Z,20.72
2023-04-19T13:14:00.672Z,20.62
2023-04-19T13:16:29.733Z,20.59
2023-04-19T13:18:58.960Z,20.38
2023-04-19T13:21:28.257Z,20.07
2023-04-19T13:23:59.554Z,20.13
2023-04-19T13:26:30.431Z,19.98
2023-04-19T13:28:59.758Z,19.91
2023-04-19T13:31:29.277Z,19.72
2023-04-19T13:34:00.780Z,19.74
2023-04-19T13:36:30.074Z,19.53
2023-04-19T13:38:59.951Z,19.23
2023-04-19T13:41:31.573Z,18.92
2023-04-19T13:44:00.641Z,18.82
2023-04-19T13:46:29.880Z,18.28
2023-04-19T13:48:59.099Z,18.42
2023-04-19T13:51:38.742Z,18.27
2023-04-19T13:54:18.122Z,18.21
2023-04-19T13:56:51.962Z,18.42
2023-04-19T13:59:22.061Z,18.59
2023-04-19T14:01:51.309Z,18.88
2023-04-19T14:04:21.023Z,18.96
2023-04-19T14:06:50.623Z,18.77
2023-04-19T14:09:19.717Z,18.90
2023-04-19T14:11:50.373Z,18.62
2023-04-19T14:14:19.522Z,18.50
2023-04-19T14:16:48.839Z,18.21
2023-04-19T14:19:18.024Z,18.34
2023-04-19T14:21:47.385Z,18.39
2023-04-19T14:24:16.745Z,18.30
2023-04-19T14:26:48.673Z,18.27
2023-04-19T14:29:25.635Z,17.85
2023-04-19T14:31:54.721Z,17.49
2023-04-19T14:34:24.089Z,17.34
2023-04-19T14:36:53.348Z,17.18
2023-04-19T14:39:22.687Z,17.12
2023-04-19T14:41:51.862Z,16.99
2023-04-19T14:44:21.046Z,16.80
2023-04-19T14:46:51.607Z,16.94
2023-04-19T14:49:20.753Z,16.95
2023-04-19T14:51:49.914Z,16.87
2023-04-19T14:54:19.010Z,16.83
2023-04-19T14:56:48.313Z,17.00
2023-04-19T14:59:18.206Z,16.77
2023-04-19T15:01:47.545Z,16.76
2023-04-19T15:04:18.400Z,16.81
2023-04-19T15:06:47.732Z,16.94
2023-04-19T15:09:17.096Z,16.78
2023-04-19T15:11:46.845Z,16.72
2023-04-19T15:14:16.036Z,16.50
2023-04-19T15:16:45.249Z,16.24
2023-04-19T15:19:14.904Z,16.12
2023-04-19T15:21:45.792Z,15.97
2023-04-19T15:24:14.925Z,16.07
2023-04-19T15:26:44.706Z,15.95
2023-04-19T15:29:14.244Z,15.82
2023-04-19T15:31:43.598Z,15.79
2023-04-19T15:34:12.795Z,15.71
2023-04-19T15:36:42.013Z,15.64
2023-04-19T15:39:12.622Z,15.53
2023-04-19T15:41:41.745Z,15.49
2023-04-19T15:44:11.140Z,15.43
2023-04-19T15:46:40.560Z,15.44
2023-04-19T15:49:09.860Z,15.49
2023-04-19T15:51:39.822Z,15.28
2023-04-19T15:54:08.991Z,15.39
2023-04-19T15:56:39.649Z,15.32
2023-04-19T15:59:08.812Z,15.29
2023-04-19T16:01:38.121Z,15.17
2023-04-19T16:04:07.823Z,15.10
2023-04-19T16:06:37.295Z,14.99
2023-04-19T16:09:08.512Z,14.78
2023-04-19T16:11:39.869Z,14.53
2023-04-19T16:14:09.079Z,14.44
2023-04-19T16:16:38.685Z,14.29
2023-04-19T16:19:07.949Z,14.05
2023-04-19T16:21:37.287Z,13.91
2023-04-19T16:24:07.062Z,13.84
2023-04-19T16:26:36.267Z,13.67
2023-04-19T16:29:07.178Z,13.57
2023-04-19T16:31:36.782Z,13.52
2023-04-19T16:34:06.099Z,13.38
2023-04-19T16:36:35.406Z,13.48
2023-04-19T16:39:04.722Z,13.37
2023-04-19T16:41:33.850Z,13.40
2023-04-19T16:44:03.050Z,13.33
2023-04-19T16:46:33.901Z,13.36
2023-04-19T16:49:03.357Z,13.16
2023-04-19T16:51:32.803Z,13.27
2023-04-19T16:54:02.306Z,13.21
2023-04-19T16:56:31.821Z,13.25
2023-04-19T16:59:01.692Z,13.34
2023-04-19T17:01:31.102Z,13.25
2023-04-19T17:04:02.030Z,13.26
2023-04-19T17:06:32.293Z,13.31
2023-04-19T17:09:05.188Z,13.17
2023-04-19T17:11:34.354Z,13.06
2023-04-19T17:14:03.533Z,12.96
2023-04-19T17:16:32.883Z,12.96
2023-04-19T17:19:03.628Z,12.92
2023-04-19T17:21:32.857Z,12.88
2023-04-19T17:24:02.097Z,12.89
2023-04-19T17:26:31.476Z,12.84
2023-04-19T17:29:02.061Z,12.85
2023-04-19T17:31:31.440Z,12.72
2023-04-19T17:34:00.731Z,12.62
2023-04-19T17:36:31.840Z,12.64
2023-04-19T17:39:01.183Z,12.77
2023-04-19T17:41:30.597Z,12.70
2023-04-19T17:43:59.777Z,12.67
2023-04-19T17:46:29.236Z,12.69
2023-04-19T17:48:58.553Z,12.84
2023-04-19T17:51:27.850Z,12.72
2023-04-19T17:53:58.581Z,12.71
2023-04-19T17:56:27.724Z,12.67
2023-04-19T17:58:57.232Z,12.73
2023-04-19T18:01:26.418Z,12.71
2023-04-19T18:03:55.876Z,12.67
2023-04-19T18:06:25.238Z,12.68
2023-04-19T18:08:54.537Z,12.67
2023-04-19T18:11:27.674Z,12.65
2023-04-19T18:13:57.962Z,12.55
2023-04-19T18:16:27.229Z,12.52
2023-04-19T18:18:56.645Z,12.46
2023-04-19T18:21:26.105Z,12.47
2023-04-19T18:23:56.572Z,12.43
2023-04-19T18:26:27.236Z,12.57
2023-04-19T18:28:56.567Z,12.58
2023-04-19T18:31:25.963Z,12.46
2023-04-19T18:33:55.339Z,12.45
2023-04-19T18:36:24.639Z,12.52
2023-04-19T18:38:53.930Z,12.53
2023-04-19T18:41:23.472Z,12.51
2023-04-19T18:44:24.903Z,12.54
2023-04-19T18:46:44.285Z,12.65
2023-04-19T18:49:13.820Z,12.67
2023-04-19T18:51:43.038Z,12.63
2023-04-19T18:54:12.335Z,12.64
2023-04-19T18:57:14.812Z,12.58
2023-04-19T18:59:32.148Z,12.52
2023-04-19T19:02:01.403Z,12.48
2023-04-19T19:04:48.362Z,12.51
2023-04-19T19:09:57.238Z,12.36
2023-04-19T19:12:26.867Z,12.29
2023-04-19T19:14:57.527Z,12.35
2023-04-19T19:17:28.277Z,12.26
2023-04-19T19:19:57.799Z,12.28
2023-04-19T19:22:29.032Z,12.32
2023-04-19T19:24:58.571Z,12.37
2023-04-19T19:27:27.859Z,12.22
2023-04-19T19:29:58.983Z,12.30
2023-04-19T19:32:28.282Z,12.16
2023-04-19T19:35:02.382Z,12.14
2023-04-19T19:37:34.295Z,11.93
2023-04-19T19:40:05.418Z,12.00
2023-04-19T19:42:36.051Z,11.95
2023-04-19T19:45:08.234Z,11.89
2023-04-19T19:47:43.389Z,11.73
2023-04-19T19:52:47.673Z,11.46
2023-04-19T19:55:16.905Z,11.42
2023-04-19T20:02:56.061Z,11.31
2023-04-19T20:05:26.337Z,11.24
2023-04-19T20:08:08.728Z,11.18
2023-04-19T20:10:40.027Z,11.09
2023-04-19T20:13:09.563Z,11.03
2023-04-19T20:15:41.157Z,10.94
2023-04-19T20:18:10.363Z,10.89
2023-04-19T20:20:39.779Z,10.83
2023-04-19T20:23:08.961Z,10.74
2023-04-19T20:25:38.866Z,10.72
2023-04-19T20:28:09.695Z,10.61
2023-04-19T20:30:40.466Z,10.58
2023-04-19T20:33:09.869Z,10.50
2023-04-19T20:35:39.193Z,10.46
2023-04-19T20:38:08.632Z,10.41
2023-04-19T20:40:37.844Z,10.45
2023-04-19T20:43:08.499Z,10.46
2023-04-19T20:45:37.881Z,10.46
2023-04-19T20:48:08.827Z,10.51
2023-04-19T20:50:38.129Z,10.47
2023-04-19T20:53:07.346Z,10.44
2023-04-19T20:55:38.468Z,10.44
2023-04-19T20:58:07.671Z,10.40
2023-04-19T21:00:36.893Z,10.36
2023-04-19T21:03:08.210Z,10.38
2023-04-19T21:05:37.487Z,10.33
2023-04-19T21:08:06.898Z,10.33
2023-04-19T21:10:38.876Z,10.35
2023-04-19T21:13:08.185Z,10.26
2023-04-19T21:15:38.101Z,10.19
2023-04-19T21:18:08.815Z,10.12
2023-04-19T21:20:38.218Z,10.05
2023-04-19T21:23:07.501Z,10.01
2023-04-19T21:25:36.726Z,10.10
2023-04-19T21:28:05.899Z,10.06
2023-04-19T21:30:38.877Z,10.08
2023-04-19T21:33:09.731Z,10.07
2023-04-19T21:35:39.075Z,10.09
2023-04-19T21:38:08.349Z,10.19
2023-04-19T21:40:37.527Z,10.19
2023-04-19T21:43:06.769Z,10.30
2023-04-19T21:45:35.891Z,10.30
2023-04-19T21:48:05.192Z,10.40
2023-04-19T21:50:38.032Z,10.40
2023-04-19T21:53:07.416Z,10.43
2023-04-19T21:55:36.559Z,10.45
2023-04-19T21:58:05.916Z,10.52
2023-04-19T22:00:35.021Z,10.57
2023-04-19T22:03:04.413Z,10.61
2023-04-19T22:05:35.097Z,10.65
2023-04-19T22:08:05.924Z,10.66
2023-04-19T22:10:35.285Z,10.71
2023-04-19T22:13:06.180Z,10.75
2023-04-19T22:15:35.261Z,10.73
2023-04-19T22:18:04.877Z,10.74
2023-04-19T22:20:37.116Z,10.80
2023-04-19T22:23:06.411Z,10.70
2023-04-19T22:25:35.797Z,10.58
2023-04-19T22:28:07.301Z,10.53
2023-04-19T22:30:37.030Z,10.44
2023-04-19T22:33:06.347Z,10.45
2023-04-19T22:35:37.005Z,10.43
2023-04-19T22:38:06.530Z,10.37
2023-04-19T22:40:35.507Z,10.39
2023-04-19T22:43:04.766Z,10.41
2023-04-19T22:45:33.973Z,10.46
2023-04-19T22:48:03.555Z,10.38
2023-04-19T22:50:32.817Z,10.34
2023-04-19T22:53:03.633Z,10.41
2023-04-19T22:55:32.743Z,10.49
2023-04-19T22:58:02.100Z,10.53
2023-04-19T23:00:31.273Z,10.53
2023-04-19T23:03:00.492Z,10.55
2023-04-19T23:05:30.105Z,10.53
2023-04-19T23:08:00.391Z,10.59
2023-04-19T23:10:32.007Z,10.57
2023-04-19T23:13:01.216Z,10.62
2023-04-19T23:15:30.806Z,10.65
2023-04-19T23:18:02.459Z,10.65
2023-04-19T23:20:32.384Z,10.64
2023-04-19T23:23:01.607Z,10.73
2023-04-19T23:25:32.278Z,10.69
2023-04-19T23:28:01.528Z,10.72
2023-04-19T23:30:32.186Z,10.68
2023-04-19T23:33:01.520Z,10.66
2023-04-19T23:35:30.744Z,10.61
2023-04-19T23:37:59.897Z,10.65
2023-04-19T23:40:29.036Z,10.67
2023-04-19T23:42:59.642Z,10.62
2023-04-19T23:45:28.836Z,10.62
2023-04-19T23:47:57.947Z,10.74
2023-04-19T23:50:27.346Z,10.77
2023-04-19T23:52:56.398Z,10.81
2023-04-19T23:55:25.808Z,10.88
2023-04-19T23:57:54.759Z,10.84
